sensor_id;sensor_type;location;lat;lon;timestamp;P1;P2;P0
77413;PMS7003;66486;49.992;19.164;2024-01-15T00:01:32;8.25;6.50;5.00
77413;PMS7003;66486;49.992;19.164;2024-01-15T00:03:58;14.33;13.00;9.00
77413;PMS7003;66486;49.992;19.164;2024-01-15T00:06:25;9.50;9.50;7.00
77413;PMS7003;66486;49.992;19.164;2024-01-15T00:08:52;9.25;7.50;6.00
77413;PMS7003;66486;49.992;19.164;2024-01-15T00:11:18;12.75;9.75;7.00
77413;PMS7003;66486;49.992;19.164;2024-01-15T00:13:44;13.25;10.75;9.25
77413;PMS7003;66486;49.992;19.164;2024-01-15T00:16:10;13.50;12.50;7.00
77413;PMS7003;66486;49.992;19.164;2024-01-15T00:18:37;9.75;8.50;6.00
77413;PMS7003;66486;49.992;19.164;2024-01-15T00:21:03;12.00;10.00;7.50
77413;PMS7003;66486;49.992;19.164;2024-01-15T00:23:29;9.75;9.75;6.50
77413;PMS7003;66486;49.992;19.164;2024-01-15T00:25:55;4.80;4.60;2.60
77413;PMS7003;66486;49.992;19.164;2024-01-15T00:28:21;15.00;14.00;8.50
77413;PMS7003;66486;49.992;19.164;2024-01-15T00:30:48;15.25;14.50;9.00
77413;PMS7003;66486;49.992;19.164;2024-01-15T00:33:16;8.25;7.75;4.75
77413;PMS7003;66486;49.992;19.164;2024-01-15T00:35:42;11.00;10.00;7.00
77413;PMS7003;66486;49.992;19.164;2024-01-15T00:38:08;7.00;7.00;4.67
77413;PMS7003;66486;49.992;19.164;2024-01-15T00:40:34;8.50;7.00;6.00
77413;PMS7003;66486;49.992;19.164;2024-01-15T00:43:00;9.67;8.33;4.67
77413;PMS7003;66486;49.992;19.164;2024-01-15T00:45:27;4.00;3.25;3.25
77413;PMS7003;66486;49.992;19.164;2024-01-15T00:47:57;2.80;1.80;1.00
77413;PMS7003;66486;49.992;19.164;2024-01-15T00:50:25;6.00;5.50;4.00
77413;PMS7003;66486;49.992;19.164;2024-01-15T00:52:51;5.33;5.33;1.67
77413;PMS7003;66486;49.992;19.164;2024-01-15T00:55:17;5.00;4.50;3.75
77413;PMS7003;66486;49.992;19.164;2024-01-15T00:57:42;6.00;6.00;4.00
77413;PMS7003;66486;49.992;19.164;2024-01-15T01:00:09;6.00;5.00;4.00
77413;PMS7003;66486;49.992;19.164;2024-01-15T01:02:35;6.00;6.00;4.00
77413;PMS7003;66486;49.992;19.164;2024-01-15T01:05:01;8.20;8.20;5.80
77413;PMS7003;66486;49.992;19.164;2024-01-15T01:07:27;3.33;3.33;3.00
77413;PMS7003;66486;49.992;19.164;2024-01-15T01:09:53;7.00;6.00;4.00
77413;PMS7003;66486;49.992;19.164;2024-01-15T01:12:19;4.00;4.00;3.00
77413;PMS7003;66486;49.992;19.164;2024-01-15T01:14:45;3.75;3.75;3.00
77413;PMS7003;66486;49.992;19.164;2024-01-15T01:17:11;4.50;4.50;3.00
77413;PMS7003;66486;49.992;19.164;2024-01-15T01:19:37;5.40;5.00;3.00
77413;PMS7003;66486;49.992;19.164;2024-01-15T01:22:03;5.00;5.00;3.75
77413;PMS7003;66486;49.992;19.164;2024-01-15T01:24:29;4.00;4.00;3.50
77413;PMS7003;66486;49.992;19.164;2024-01-15T01:26:55;5.50;5.50;3.25
77413;PMS7003;66486;49.992;19.164;2024-01-15T01:29:24;6.50;6.50;5.00
77413;PMS7003;66486;49.992;19.164;2024-01-15T01:31:51;3.50;3.00;1.00
77413;PMS7003;66486;49.992;19.164;2024-01-15T01:34:20;3.50;3.50;3.00
77413;PMS7003;66486;49.992;19.164;2024-01-15T01:36:46;7.25;7.25;3.75
77413;PMS7003;66486;49.992;19.164;2024-01-15T01:39:13;4.00;4.00;3.40
77413;PMS7003;66486;49.992;19.164;2024-01-15T01:41:39;4.80;4.40;3.00
77413;PMS7003;66486;49.992;19.164;2024-01-15T01:44:06;4.00;3.00;3.00
77413;PMS7003;66486;49.992;19.164;2024-01-15T01:46:32;4.40;4.40;3.40
77413;PMS7003;66486;49.992;19.164;2024-01-15T01:49:05;4.40;4.40;3.00
77413;PMS7003;66486;49.992;19.164;2024-01-15T01:51:31;6.40;5.60;3.80
77413;PMS7003;66486;49.992;19.164;2024-01-15T01:54:00;3.00;3.00;3.00
77413;PMS7003;66486;49.992;19.164;2024-01-15T01:56:29;6.00;4.50;3.00
77413;PMS7003;66486;49.992;19.164;2024-01-15T01:58:56;4.50;4.00;3.00
77413;PMS7003;66486;49.992;19.164;2024-01-15T02:01:22;2.20;2.20;2.20
77413;PMS7003;66486;49.992;19.164;2024-01-15T02:03:48;3.25;3.25;1.50
77413;PMS7003;66486;49.992;19.164;2024-01-15T02:06:18;1.50;1.50;1.00
77413;PMS7003;66486;49.992;19.164;2024-01-15T02:08:44;8.50;8.50;4.50
77413;PMS7003;66486;49.992;19.164;2024-01-15T02:11:10;3.25;3.25;3.25
77413;PMS7003;66486;49.992;19.164;2024-01-15T02:13:36;2.20;0.80;0.00
77413;PMS7003;66486;49.992;19.164;2024-01-15T02:16:04;4.00;3.00;3.00
77413;PMS7003;66486;49.992;19.164;2024-01-15T02:18:43;9.00;7.40;4.00
77413;PMS7003;66486;49.992;19.164;2024-01-15T02:21:11;3.60;3.00;1.40
77413;PMS7003;66486;49.992;19.164;2024-01-15T02:23:38;3.80;3.60;1.80
77413;PMS7003;66486;49.992;19.164;2024-01-15T02:26:05;3.50;3.50;1.00
77413;PMS7003;66486;49.992;19.164;2024-01-15T02:28:32;6.25;5.00;3.75
77413;PMS7003;66486;49.992;19.164;2024-01-15T02:30:58;4.00;3.00;3.00
77413;PMS7003;66486;49.992;19.164;2024-01-15T02:33:25;3.00;3.00;3.00
77413;PMS7003;66486;49.992;19.164;2024-01-15T02:35:51;4.00;3.50;3.00
77413;PMS7003;66486;49.992;19.164;2024-01-15T02:38:18;3.75;3.25;3.00
77413;PMS7003;66486;49.992;19.164;2024-01-15T02:40:44;6.00;5.67;3.00
77413;PMS7003;66486;49.992;19.164;2024-01-15T02:43:11;0.00;0.00;0.00
77413;PMS7003;66486;49.992;19.164;2024-01-15T02:45:38;3.50;3.50;2.75
77413;PMS7003;66486;49.992;19.164;2024-01-15T02:48:05;7.00;6.00;3.00
77413;PMS7003;66486;49.992;19.164;2024-01-15T02:50:31;3.00;3.00;3.00
77413;PMS7003;66486;49.992;19.164;2024-01-15T02:52:57;5.00;5.00;3.00
77413;PMS7003;66486;49.992;19.164;2024-01-15T02:55:23;1.00;1.00;0.67
77413;PMS7003;66486;49.992;19.164;2024-01-15T02:57:49;4.50;4.50;4.00
77413;PMS7003;66486;49.992;19.164;2024-01-15T03:00:15;4.00;4.00;3.33
77413;PMS7003;66486;49.992;19.164;2024-01-15T03:02:44;1.00;1.00;1.00
77413;PMS7003;66486;49.992;19.164;2024-01-15T03:05:10;3.25;3.25;3.00
77413;PMS7003;66486;49.992;19.164;2024-01-15T03:07:36;5.50;4.50;3.75
77413;PMS7003;66486;49.992;19.164;2024-01-15T03:10:04;1.00;0.00;0.00
77413;PMS7003;66486;49.992;19.164;2024-01-15T03:12:31;4.00;4.00;3.00
77413;PMS7003;66486;49.992;19.164;2024-01-15T03:14:57;7.25;6.25;4.50
77413;PMS7003;66486;49.992;19.164;2024-01-15T03:17:24;5.25;4.00;3.50
77413;PMS7003;66486;49.992;19.164;2024-01-15T03:19:50;5.00;5.00;4.00
77413;PMS7003;66486;49.992;19.164;2024-01-15T03:22:17;6.25;6.00;4.00
77413;PMS7003;66486;49.992;19.164;2024-01-15T03:24:43;4.40;4.40;3.60
77413;PMS7003;66486;49.992;19.164;2024-01-15T03:27:10;4.50;4.50;3.75
77413;PMS7003;66486;49.992;19.164;2024-01-15T03:29:36;1.00;0.33;0.00
77413;PMS7003;66486;49.992;19.164;2024-01-15T03:32:05;6.00;5.00;4.00
77413;PMS7003;66486;49.992;19.164;2024-01-15T03:34:31;0.40;0.40;0.40
77413;PMS7003;66486;49.992;19.164;2024-01-15T03:36:58;4.00;4.00;3.00
77413;PMS7003;66486;49.992;19.164;2024-01-15T03:39:24;3.75;3.00;3.00
77413;PMS7003;66486;49.992;19.164;2024-01-15T03:41:51;4.00;3.00;3.00
77413;PMS7003;66486;49.992;19.164;2024-01-15T03:44:17;25.67;18.00;9.67
77413;PMS7003;66486;49.992;19.164;2024-01-15T03:46:43;1.00;1.00;1.00
77413;PMS7003;66486;49.992;19.164;2024-01-15T03:49:09;4.00;3.33;3.00
77413;PMS7003;66486;49.992;19.164;2024-01-15T03:51:35;1.00;1.00;0.50
77413;PMS7003;66486;49.992;19.164;2024-01-15T03:54:00;3.67;3.67;3.33
77413;PMS7003;66486;49.992;19.164;2024-01-15T03:56:27;3.75;3.75;3.00
77413;PMS7003;66486;49.992;19.164;2024-01-15T03:58:52;3.00;3.00;1.00
77413;PMS7003;66486;49.992;19.164;2024-01-15T04:01:19;2.20;2.20;0.60
77413;PMS7003;66486;49.992;19.164;2024-01-15T04:03:49;1.50;1.50;1.00
77413;PMS7003;66486;49.992;19.164;2024-01-15T04:06:15;2.50;1.00;1.00
77413;PMS7003;66486;49.992;19.164;2024-01-15T04:08:41;5.33;3.00;1.00
77413;PMS7003;66486;49.992;19.164;2024-01-15T04:11:07;3.50;3.00;2.00
77413;PMS7003;66486;49.992;19.164;2024-01-15T04:13:33;1.67;1.00;0.00
77413;PMS7003;66486;49.992;19.164;2024-01-15T04:16:00;1.00;1.00;1.00
77413;PMS7003;66486;49.992;19.164;2024-01-15T04:18:26;2.00;2.00;1.00
77413;PMS7003;66486;49.992;19.164;2024-01-15T04:20:52;3.00;3.00;2.50
77413;PMS7003;66486;49.992;19.164;2024-01-15T04:23:18;0.33;0.33;0.00
77413;PMS7003;66486;49.992;19.164;2024-01-15T04:25:44;2.00;1.00;1.00
77413;PMS7003;66486;49.992;19.164;2024-01-15T04:28:11;2.00;2.00;1.00
77413;PMS7003;66486;49.992;19.164;2024-01-15T04:30:38;2.50;2.50;1.00
77413;PMS7003;66486;49.992;19.164;2024-01-15T04:33:04;1.00;1.00;1.00
77413;PMS7003;66486;49.992;19.164;2024-01-15T04:35:30;1.40;1.40;1.00
77413;PMS7003;66486;49.992;19.164;2024-01-15T04:37:56;4.00;4.00;4.00
77413;PMS7003;66486;49.992;19.164;2024-01-15T04:40:22;0.00;0.00;0.00
77413;PMS7003;66486;49.992;19.164;2024-01-15T04:42:48;3.00;3.00;1.67
77413;PMS7003;66486;49.992;19.164;2024-01-15T04:45:14;0.75;0.75;0.50
77413;PMS7003;66486;49.992;19.164;2024-01-15T04:47:40;4.00;4.00;3.00
77413;PMS7003;66486;49.992;19.164;2024-01-15T04:50:08;1.00;1.00;0.00
77413;PMS7003;66486;49.992;19.164;2024-01-15T04:52:34;1.00;1.00;0.00
77413;PMS7003;66486;49.992;19.164;2024-01-15T04:55:00;3.00;3.00;1.80
77413;PMS7003;66486;49.992;19.164;2024-01-15T04:57:26;3.67;1.00;1.00
77413;PMS7003;66486;49.992;19.164;2024-01-15T04:59:52;1.50;1.50;1.00
77413;PMS7003;66486;49.992;19.164;2024-01-15T05:02:18;0.00;0.00;0.00
77413;PMS7003;66486;49.992;19.164;2024-01-15T05:04:44;2.00;2.00;1.00
77413;PMS7003;66486;49.992;19.164;2024-01-15T05:07:10;2.33;2.33;1.00
77413;PMS7003;66486;49.992;19.164;2024-01-15T05:09:39;0.20;0.20;0.00
77413;PMS7003;66486;49.992;19.164;2024-01-15T05:12:05;3.60;3.60;1.80
77413;PMS7003;66486;49.992;19.164;2024-01-15T05:14:31;6.00;6.00;4.00
77413;PMS7003;66486;49.992;19.164;2024-01-15T05:16:57;1.00;1.00;0.75
77413;PMS7003;66486;49.992;19.164;2024-01-15T05:19:23;4.80;4.80;3.60
77413;PMS7003;66486;49.992;19.164;2024-01-15T05:21:49;5.50;5.50;3.00
77413;PMS7003;66486;49.992;19.164;2024-01-15T05:24:15;6.00;6.00;4.00
77413;PMS7003;66486;49.992;19.164;2024-01-15T05:26:41;6.00;6.00;3.00
77413;PMS7003;66486;49.992;19.164;2024-01-15T05:29:07;3.60;3.40;2.20
77413;PMS7003;66486;49.992;19.164;2024-01-15T05:31:33;3.00;3.00;3.00
77413;PMS7003;66486;49.992;19.164;2024-01-15T05:34:01;6.40;6.00;3.00
77413;PMS7003;66486;49.992;19.164;2024-01-15T05:36:27;6.33;6.33;4.00
77413;PMS7003;66486;49.992;19.164;2024-01-15T05:38:56;8.00;6.75;5.00
77413;PMS7003;66486;49.992;19.164;2024-01-15T06:45:39;12.00;9.75;6.00
77413;PMS7003;66486;49.992;19.164;2024-01-15T06:48:06;3.20;3.20;3.00
77413;PMS7003;66486;49.992;19.164;2024-01-15T06:50:35;4.00;4.00;3.00
77413;PMS7003;66486;49.992;19.164;2024-01-15T06:53:01;3.25;3.25;2.00
77413;PMS7003;66486;49.992;19.164;2024-01-15T06:55:28;4.00;3.00;3.00
77413;PMS7003;66486;49.992;19.164;2024-01-15T06:58:00;1.75;1.75;0.75
77413;PMS7003;66486;49.992;19.164;2024-01-15T07:00:27;4.00;3.50;2.00
77413;PMS7003;66486;49.992;19.164;2024-01-15T07:02:53;0.00;0.00;0.00
77413;PMS7003;66486;49.992;19.164;2024-01-15T07:05:20;4.67;4.67;3.00
77413;PMS7003;66486;49.992;19.164;2024-01-15T07:07:49;3.75;3.50;2.50
77413;PMS7003;66486;49.992;19.164;2024-01-15T07:10:19;6.00;5.50;3.25
77413;PMS7003;66486;49.992;19.164;2024-01-15T07:12:45;5.00;5.00;3.75
77413;PMS7003;66486;49.992;19.164;2024-01-15T07:15:11;3.00;3.00;2.33
77413;PMS7003;66486;49.992;19.164;2024-01-15T07:17:38;1.00;1.00;0.00
77413;PMS7003;66486;49.992;19.164;2024-01-15T07:20:08;3.50;3.50;3.25
77413;PMS7003;66486;49.992;19.164;2024-01-15T07:22:35;6.75;6.00;4.00
77413;PMS7003;66486;49.992;19.164;2024-01-15T07:37:55;14.75;10.00;4.00
77413;PMS7003;66486;49.992;19.164;2024-01-15T07:40:22;7.40;4.80;1.00
77413;PMS7003;66486;49.992;19.164;2024-01-15T07:42:47;8.75;6.50;4.00
77413;PMS7003;66486;49.992;19.164;2024-01-15T07:45:14;8.50;7.00;4.50
77413;PMS7003;66486;49.992;19.164;2024-01-15T07:47:40;4.20;4.20;3.00
77413;PMS7003;66486;49.992;19.164;2024-01-15T07:50:06;4.80;3.60;3.00
77413;PMS7003;66486;49.992;19.164;2024-01-15T07:52:33;9.25;7.00;6.00
77413;PMS7003;66486;49.992;19.164;2024-01-15T07:54:59;7.00;7.00;6.00
77413;PMS7003;66486;49.992;19.164;2024-01-15T07:57:25;4.00;4.00;3.00
77413;PMS7003;66486;49.992;19.164;2024-01-15T07:59:52;8.25;7.00;5.00
77413;PMS7003;66486;49.992;19.164;2024-01-15T08:02:18;6.00;6.00;4.00
77413;PMS7003;66486;49.992;19.164;2024-01-15T08:04:45;10.25;8.00;4.00
77413;PMS7003;66486;49.992;19.164;2024-01-15T08:07:11;8.50;7.50;4.50
77413;PMS7003;66486;49.992;19.164;2024-01-15T08:09:38;6.75;4.00;3.00
77413;PMS7003;66486;49.992;19.164;2024-01-15T08:12:05;9.50;7.75;5.00
77413;PMS7003;66486;49.992;19.164;2024-01-15T08:14:31;5.50;4.00;1.00
77413;PMS7003;66486;49.992;19.164;2024-01-15T08:16:57;6.33;5.33;3.67
77413;PMS7003;66486;49.992;19.164;2024-01-15T08:19:24;6.00;6.00;4.00
77413;PMS7003;66486;49.992;19.164;2024-01-15T08:21:50;5.33;4.00;3.00
77413;PMS7003;66486;49.992;19.164;2024-01-15T08:24:16;10.50;9.75;6.50
77413;PMS7003;66486;49.992;19.164;2024-01-15T08:26:42;6.00;6.00;4.00
77413;PMS7003;66486;49.992;19.164;2024-01-15T08:29:09;9.00;6.00;1.00
77413;PMS7003;66486;49.992;19.164;2024-01-15T08:31:35;8.33;8.33;6.00
77413;PMS7003;66486;49.992;19.164;2024-01-15T08:34:01;8.50;8.50;6.25
77413;PMS7003;66486;49.992;19.164;2024-01-15T08:36:27;10.00;10.00;7.50
77413;PMS7003;66486;49.992;19.164;2024-01-15T08:50:32;13.25;12.00;8.50
77413;PMS7003;66486;49.992;19.164;2024-01-15T08:52:59;8.60;7.60;3.40
77413;PMS7003;66486;49.992;19.164;2024-01-15T08:55:26;9.25;9.25;7.50
77413;PMS7003;66486;49.992;19.164;2024-01-15T08:57:56;6.50;6.50;3.75
77413;PMS7003;66486;49.992;19.164;2024-01-15T09:00:37;12.50;12.50;7.50
77413;PMS7003;66486;49.992;19.164;2024-01-15T09:03:04;0.75;0.00;0.00
77413;PMS7003;66486;49.992;19.164;2024-01-15T09:05:30;7.50;6.75;6.00
77413;PMS7003;66486;49.992;19.164;2024-01-15T09:07:56;9.25;9.00;6.00
77413;PMS7003;66486;49.992;19.164;2024-01-15T09:10:23;3.50;3.50;3.00
77413;PMS7003;66486;49.992;19.164;2024-01-15T09:12:52;10.75;8.50;6.50
77413;PMS7003;66486;49.992;19.164;2024-01-15T09:15:18;9.00;9.00;5.33
77413;PMS7003;66486;49.992;19.164;2024-01-15T09:17:45;6.75;6.25;4.00
77413;PMS7003;66486;49.992;19.164;2024-01-15T09:20:11;6.50;6.00;0.75
77413;PMS7003;66486;49.992;19.164;2024-01-15T09:22:38;20.50;19.00;15.00
77413;PMS7003;66486;49.992;19.164;2024-01-15T09:25:10;15.25;12.25;7.25
77413;PMS7003;66486;49.992;19.164;2024-01-15T09:27:41;12.00;12.00;9.00
77413;PMS7003;66486;49.992;19.164;2024-01-15T09:30:15;5.50;5.00;4.00
77413;PMS7003;66486;49.992;19.164;2024-01-15T09:32:47;11.75;11.00;6.75
77413;PMS7003;66486;49.992;19.164;2024-01-15T09:35:14;15.00;15.00;7.50
77413;PMS7003;66486;49.992;19.164;2024-01-15T09:37:40;9.75;8.75;6.50
77413;PMS7003;66486;49.992;19.164;2024-01-15T09:40:14;15.00;13.00;9.00
77413;PMS7003;66486;49.992;19.164;2024-01-15T09:42:45;13.50;13.00;9.25
77413;PMS7003;66486;49.992;19.164;2024-01-15T09:45:12;12.50;11.75;7.25
77413;PMS7003;66486;49.992;19.164;2024-01-15T09:47:38;6.00;6.00;6.00
77413;PMS7003;66486;49.992;19.164;2024-01-15T09:50:09;11.50;11.50;8.50
77413;PMS7003;66486;49.992;19.164;2024-01-15T09:52:50;13.40;10.20;6.00
77413;PMS7003;66486;49.992;19.164;2024-01-15T09:55:18;13.50;12.50;7.50
77413;PMS7003;66486;49.992;19.164;2024-01-15T09:57:54;10.50;9.25;6.00
77413;PMS7003;66486;49.992;19.164;2024-01-15T10:00:28;12.20;11.40;9.00
77413;PMS7003;66486;49.992;19.164;2024-01-15T10:02:57;9.40;9.40;3.00
77413;PMS7003;66486;49.992;19.164;2024-01-15T10:05:27;9.60;6.40;4.00
77413;PMS7003;66486;49.992;19.164;2024-01-15T10:07:54;12.75;12.75;8.00
77413;PMS7003;66486;49.992;19.164;2024-01-15T10:10:28;11.20;11.20;8.60
77413;PMS7003;66486;49.992;19.164;2024-01-15T10:13:09;11.00;9.50;7.25
77413;PMS7003;66486;49.992;19.164;2024-01-15T10:15:39;11.25;11.25;8.50
77413;PMS7003;66486;49.992;19.164;2024-01-15T10:18:09;13.00;12.75;9.00
77413;PMS7003;66486;49.992;19.164;2024-01-15T10:20:39;4.50;4.50;3.75
77413;PMS7003;66486;49.992;19.164;2024-01-15T10:23:10;5.50;4.00;1.00
77413;PMS7003;66486;49.992;19.164;2024-01-15T10:25:37;15.50;14.50;10.00
77413;PMS7003;66486;49.992;19.164;2024-01-15T10:28:09;10.25;8.75;6.50
77413;PMS7003;66486;49.992;19.164;2024-01-15T10:42:39;12.75;12.75;6.75
77413;PMS7003;66486;49.992;19.164;2024-01-15T10:57:04;21.00;15.75;9.50
77413;PMS7003;66486;49.992;19.164;2024-01-15T10:59:37;13.40;10.80;6.20
77413;PMS7003;66486;49.992;19.164;2024-01-15T11:02:03;11.20;9.60;5.60
77413;PMS7003;66486;49.992;19.164;2024-01-15T11:04:33;22.20;17.60;9.80
77413;PMS7003;66486;49.992;19.164;2024-01-15T11:07:02;17.80;14.40;9.60
77413;PMS7003;66486;49.992;19.164;2024-01-15T11:09:34;13.80;12.60;7.00
77413;PMS7003;66486;49.992;19.164;2024-01-15T11:12:10;19.40;18.20;12.00
77413;PMS7003;66486;49.992;19.164;2024-01-15T11:14:48;17.25;14.75;9.00
77413;PMS7003;66486;49.992;19.164;2024-01-15T11:17:20;8.50;4.50;3.00
77413;PMS7003;66486;49.992;19.164;2024-01-15T11:19:48;16.60;12.80;9.60
77413;PMS7003;66486;49.992;19.164;2024-01-15T11:25:12;14.80;12.60;9.00
77413;PMS7003;66486;49.992;19.164;2024-01-15T11:27:50;17.25;15.25;10.00
77413;PMS7003;66486;49.992;19.164;2024-01-15T11:30:24;20.50;19.00;9.75
77413;PMS7003;66486;49.992;19.164;2024-01-15T11:32:52;7.80;7.80;6.80
77413;PMS7003;66486;49.992;19.164;2024-01-15T11:35:45;16.00;13.00;8.50
77413;PMS7003;66486;49.992;19.164;2024-01-15T11:38:26;12.40;10.60;7.60
77413;PMS7003;66486;49.992;19.164;2024-01-15T11:40:55;12.40;12.20;7.40
77413;PMS7003;66486;49.992;19.164;2024-01-15T11:43:21;18.00;15.00;6.00
77413;PMS7003;66486;49.992;19.164;2024-01-15T11:45:49;7.00;4.75;3.25
77413;PMS7003;66486;49.992;19.164;2024-01-15T11:48:21;13.00;12.75;6.75
77413;PMS7003;66486;49.992;19.164;2024-01-15T11:50:53;18.00;16.20;11.20
77413;PMS7003;66486;49.992;19.164;2024-01-15T11:53:43;11.75;10.75;10.00
77413;PMS7003;66486;49.992;19.164;2024-01-15T11:56:31;10.00;8.60;5.60
77413;PMS7003;66486;49.992;19.164;2024-01-15T11:58:58;17.25;15.00;9.50
77413;PMS7003;66486;49.992;19.164;2024-01-15T12:01:25;40.75;34.75;15.75
77413;PMS7003;66486;49.992;19.164;2024-01-15T12:03:58;12.20;9.60;9.20
77413;PMS7003;66486;49.992;19.164;2024-01-15T12:06:26;12.80;12.80;6.40
77413;PMS7003;66486;49.992;19.164;2024-01-15T12:09:05;20.75;19.50;12.50
77413;PMS7003;66486;49.992;19.164;2024-01-15T12:11:36;22.75;21.50;14.75
77413;PMS7003;66486;49.992;19.164;2024-01-15T12:14:11;15.20;12.40;4.40
77413;PMS7003;66486;49.992;19.164;2024-01-15T12:16:45;13.50;13.50;9.50
77413;PMS7003;66486;49.992;19.164;2024-01-15T12:19:11;17.60;15.20;10.20
77413;PMS7003;66486;49.992;19.164;2024-01-15T12:21:42;18.00;11.50;6.00
77413;PMS7003;66486;49.992;19.164;2024-01-15T12:24:19;12.20;11.00;6.00
77413;PMS7003;66486;49.992;19.164;2024-01-15T12:26:58;17.60;17.20;10.80
77413;PMS7003;66486;49.992;19.164;2024-01-15T12:29:25;23.60;19.80;12.60
77413;PMS7003;66486;49.992;19.164;2024-01-15T12:31:57;10.80;9.00;3.00
77413;PMS7003;66486;49.992;19.164;2024-01-15T12:34:28;10.00;10.00;5.00
77413;PMS7003;66486;49.992;19.164;2024-01-15T12:37:04;24.40;24.40;12.40
77413;PMS7003;66486;49.992;19.164;2024-01-15T12:39:33;21.40;17.60;12.00
77413;PMS7003;66486;49.992;19.164;2024-01-15T12:42:08;16.80;15.40;11.60
77413;PMS7003;66486;49.992;19.164;2024-01-15T12:44:37;9.00;9.00;3.20
77413;PMS7003;66486;49.992;19.164;2024-01-15T12:47:04;18.80;17.20;11.80
77413;PMS7003;66486;49.992;19.164;2024-01-15T12:49:36;12.00;10.60;7.00
77413;PMS7003;66486;49.992;19.164;2024-01-15T12:52:08;16.20;16.20;12.00
77413;PMS7003;66486;49.992;19.164;2024-01-15T12:54:38;14.00;12.50;5.00
77413;PMS7003;66486;49.992;19.164;2024-01-15T12:57:06;14.25;12.25;6.25
77413;PMS7003;66486;49.992;19.164;2024-01-15T12:59:38;14.00;11.25;9.00
77413;PMS7003;66486;49.992;19.164;2024-01-15T13:02:05;16.00;16.00;9.25
77413;PMS7003;66486;49.992;19.164;2024-01-15T13:04:34;21.50;18.50;9.50
77413;PMS7003;66486;49.992;19.164;2024-01-15T13:07:07;18.00;18.00;12.25
77413;PMS7003;66486;49.992;19.164;2024-01-15T13:09:38;18.00;15.40;10.00
77413;PMS7003;66486;49.992;19.164;2024-01-15T13:12:08;22.25;18.00;11.50
77413;PMS7003;66486;49.992;19.164;2024-01-15T13:14:35;17.50;17.00;9.50
77413;PMS7003;66486;49.992;19.164;2024-01-15T13:17:04;10.00;9.25;7.00
77413;PMS7003;66486;49.992;19.164;2024-01-15T13:19:36;14.25;12.25;8.25
77413;PMS7003;66486;49.992;19.164;2024-01-15T13:22:08;13.50;13.50;10.00
77413;PMS7003;66486;49.992;19.164;2024-01-15T13:24:39;18.25;18.00;12.00
77413;PMS7003;66486;49.992;19.164;2024-01-15T13:27:14;15.75;15.00;10.00
77413;PMS7003;66486;49.992;19.164;2024-01-15T13:29:40;6.25;4.50;2.00
77413;PMS7003;66486;49.992;19.164;2024-01-15T13:32:07;15.25;14.25;8.50
77413;PMS7003;66486;49.992;19.164;2024-01-15T13:34:40;17.75;14.75;9.50
77413;PMS7003;66486;49.992;19.164;2024-01-15T13:37:10;16.50;14.50;7.50
77413;PMS7003;66486;49.992;19.164;2024-01-15T13:39:37;11.75;11.75;6.75
77413;PMS7003;66486;49.992;19.164;2024-01-15T13:42:03;17.00;17.00;12.00
77413;PMS7003;66486;49.992;19.164;2024-01-15T13:44:38;16.25;15.50;9.75
77413;PMS7003;66486;49.992;19.164;2024-01-15T13:47:11;14.75;11.00;9.50
77413;PMS7003;66486;49.992;19.164;2024-01-15T13:49:41;16.00;16.00;12.00
77413;PMS7003;66486;49.992;19.164;2024-01-15T13:52:08;11.50;11.50;6.25
77413;PMS7003;66486;49.992;19.164;2024-01-15T13:54:35;15.00;13.00;10.00
77413;PMS7003;66486;49.992;19.164;2024-01-15T13:57:06;23.50;20.00;14.00
77413;PMS7003;66486;49.992;19.164;2024-01-15T13:59:32;18.25;18.00;13.00
77413;PMS7003;66486;49.992;19.164;2024-01-15T14:02:05;17.25;17.25;10.00
77413;PMS7003;66486;49.992;19.164;2024-01-15T14:04:37;19.50;18.25;12.25
77413;PMS7003;66486;49.992;19.164;2024-01-15T14:07:04;23.50;23.25;13.00
77413;PMS7003;66486;49.992;19.164;2024-01-15T14:09:33;23.00;20.75;12.50
77413;PMS7003;66486;49.992;19.164;2024-01-15T14:12:00;21.25;19.50;13.00
77413;PMS7003;66486;49.992;19.164;2024-01-15T14:14:26;13.25;13.25;9.50
77413;PMS7003;66486;49.992;19.164;2024-01-15T14:16:56;12.25;11.50;7.00
77413;PMS7003;66486;49.992;19.164;2024-01-15T14:19:28;23.25;20.50;11.00
77413;PMS7003;66486;49.992;19.164;2024-01-15T14:21:55;18.50;15.75;11.25
77413;PMS7003;66486;49.992;19.164;2024-01-15T14:24:21;17.00;16.00;13.00
77413;PMS7003;66486;49.992;19.164;2024-01-15T14:26:48;15.00;14.00;9.00
77413;PMS7003;66486;49.992;19.164;2024-01-15T14:29:18;10.50;9.75;8.00
77413;PMS7003;66486;49.992;19.164;2024-01-15T14:31:51;15.75;15.50;11.25
77413;PMS7003;66486;49.992;19.164;2024-01-15T14:34:20;11.25;10.00;7.50
77413;PMS7003;66486;49.992;19.164;2024-01-15T14:36:57;7.25;6.75;6.00
77413;PMS7003;66486;49.992;19.164;2024-01-15T14:39:32;13.25;12.00;7.50
77413;PMS7003;66486;49.992;19.164;2024-01-15T14:42:02;17.75;16.25;10.00
77413;PMS7003;66486;49.992;19.164;2024-01-15T14:44:34;15.50;13.50;7.50
77413;PMS7003;66486;49.992;19.164;2024-01-15T14:47:08;17.50;17.50;9.75
77413;PMS7003;66486;49.992;19.164;2024-01-15T14:49:38;19.50;18.50;12.25
77413;PMS7003;66486;49.992;19.164;2024-01-15T14:52:04;16.00;15.00;10.00
77413;PMS7003;66486;49.992;19.164;2024-01-15T14:54:36;16.25;14.50;10.00
77413;PMS7003;66486;49.992;19.164;2024-01-15T14:57:03;18.50;18.00;11.50
77413;PMS7003;66486;49.992;19.164;2024-01-15T14:59:29;15.50;13.50;4.50
77413;PMS7003;66486;49.992;19.164;2024-01-15T15:02:07;21.50;18.00;10.25
77413;PMS7003;66486;49.992;19.164;2024-01-15T15:04:33;18.75;14.50;9.25
77413;PMS7003;66486;49.992;19.164;2024-01-15T15:07:03;17.75;14.75;11.75
77413;PMS7003;66486;49.992;19.164;2024-01-15T15:09:29;20.25;19.75;12.50
77413;PMS7003;66486;49.992;19.164;2024-01-15T15:12:24;14.50;13.50;9.00
77413;PMS7003;66486;49.992;19.164;2024-01-15T15:14:50;16.00;16.00;10.25
77413;PMS7003;66486;49.992;19.164;2024-01-15T15:17:20;16.25;14.75;9.75
77413;PMS7003;66486;49.992;19.164;2024-01-15T15:19:46;14.50;14.50;11.00
77413;PMS7003;66486;49.992;19.164;2024-01-15T15:22:19;16.00;13.00;9.00
77413;PMS7003;66486;49.992;19.164;2024-01-15T15:24:55;16.00;15.75;9.50
77413;PMS7003;66486;49.992;19.164;2024-01-15T15:27:27;9.75;9.00;3.25
77413;PMS7003;66486;49.992;19.164;2024-01-15T15:29:56;15.75;13.50;9.50
77413;PMS7003;66486;49.992;19.164;2024-01-15T15:32:25;16.75;14.75;9.75
77413;PMS7003;66486;49.992;19.164;2024-01-15T15:34:53;21.75;18.50;10.00
77413;PMS7003;66486;49.992;19.164;2024-01-15T15:37:20;20.75;19.00;9.75
77413;PMS7003;66486;49.992;19.164;2024-01-15T15:39:49;12.25;11.00;9.00
77413;PMS7003;66486;49.992;19.164;2024-01-15T15:42:16;12.25;11.00;6.00
77413;PMS7003;66486;49.992;19.164;2024-01-15T15:44:42;14.33;14.33;9.00
77413;PMS7003;66486;49.992;19.164;2024-01-15T15:47:12;12.00;12.00;6.75
77413;PMS7003;66486;49.992;19.164;2024-01-15T15:49:42;8.50;7.00;4.50
77413;PMS7003;66486;49.992;19.164;2024-01-15T15:52:12;19.75;17.75;9.75
77413;PMS7003;66486;49.992;19.164;2024-01-15T15:54:39;12.75;11.75;6.75
77413;PMS7003;66486;49.992;19.164;2024-01-15T15:57:17;7.75;7.75;3.75
77413;PMS7003;66486;49.992;19.164;2024-01-15T15:59:45;18.00;17.50;11.50
77413;PMS7003;66486;49.992;19.164;2024-01-15T16:02:15;17.50;14.00;7.00